Hlavní strana
METAR-TAF:

METAR-TAF

Letiště :

Letiště Tân Sơn Nhất

Ho Či Minovo Město, Vietnam

zeměpisná šířka: 10-49N, zeměpisná délka: 106-40E, výška: 19 m

Aktuální stav počasí

Zpráva byla vytvořena před 23 minutami, v 23:00 UTC
vítr z různých směrů 3 kt
Teplota 27°C
Vlhkost vzduchu 89%
Tlak 1011 hPa
Viditelnost 10 km a více
Skoro jasno ve výšce 2000 ft
Polojasno ve výšce 5000 ft

METAR: VVTS 152300Z VRB03KT 9999 FEW020 SCT050 27/25 Q1011 NOSIG

Čas: 06:23 (23:23 UTC)

Předpověď počasí

Zpráva byla vytvořena před 6 hodinami a 23 minutami, v 17:00 UTC
Předpověď platná od 15 v 18 UTC do 16 v 24 UTC
Východojihovýchodní vítr 8 kt
Viditelnost 10 km a více
Skoro jasno ve výšce 1700 ft
Dočasný
od 16 v 07 UTC do 16 v 10 UTC
Východní vítr 15 kt s nárazy do 25 kt
Viditelnost: 3000 m
Oblačno až skoro zataženo ve výšce 1300 ft
Polojasno ve výšce 1500 ft, Cumulonimbus.
bouřka, déšť

TAF: VVTS 151700Z 1518/1624 12008KT 9999 FEW017 TEMPO 1607/1610 09015G25KT 3000 TSRA BKN013 SCT015CB

Stav a předpovědi počasí z více než 4 000 letišť (zprávy METAR a TAF).

Červené a žluté tečky na mapě představují dostupné meteorologické stanice.

Když kurzor umístíte na tečku, zobrazí se název stanice.

Pak kliknutím zobrazíte stav a předpověď počasí.

Chcete-li změnit mapu, kliknutím na zelené tlačítko se znaménkem +mapu přiblížíte, kliknutím na zelené tlačítko se znaménkem – mapu oddálíte a kliknutím na zelené šipky přejdete na sousední mapy.


METAR-TAF: